HOURLY OBS INDEX

035

Central Highlands

BLACKWATER AIRPORT

Site: 035134
Alt: 193.0m
km of


  Time     Wind        Temp  DP   Baro     Rain since   Rain past  Vis(m), Cloud(base in m), Weather
  local        km/h                         9am  last   hr   10m    
Fri 23:00    C  0/  7  17.3 -1.9  1013.9    0.0   0.0   0.0   0.0   ----- 
Fri 23:30    E  6/  9  17.1  6.3  1014.1    0.0   0.0   0.0   0.0   ----- 
Sat 00:00    C  0/  0  14.9  7.9  1014.3    0.0   0.0   0.0   0.0   ----- 
Sat 00:30    S  2/  7  13.9  7.0  1014.2    0.0   0.0   0.0   0.0   ----- 
Sat 01:00   SE  4/  6  14.3 10.3  1013.9    0.0   0.0   0.0   0.0   ----- 
Sat 01:30  ESE  2/  9  13.8 11.7  1013.9    0.0   0.0   0.0   0.0   ----- 
Sat 02:00  ESE  6/ 11  13.9 12.6  1013.7    0.0   0.0   0.0   0.0   ----- 
Sat 02:30   SE  6/ 11  14.1 13.3  1013.6    0.0   0.0   0.0   0.0   ----- 
Sat 03:00    E  6/  7  15.0 14.4  1013.8    0.0   0.0   0.0   0.0   ----- 
Sat 03:30    C  0/  0  13.3 12.4  1013.8    0.0   0.0   0.0   0.0   ----- 
Sat 04:00    C  0/  0  13.0 12.2  1014.2    0.0   0.0   0.0   0.0   ----- 
Sat 04:30    C  0/  0  11.7 10.3  1014.8    0.0   0.0   0.0   0.0   ----- 

CLERMONT AIRPORT

Site: 035124
Alt: 270.3m
98km NNW of EMERALD


  Time     Wind        Temp  DP   Baro     Rain since   Rain past  Vis(m), Cloud(base in m), Weather
  local        km/h                         9am  last   hr   10m    
Fri 23:00   SW  7/  7  14.9  0.7  1014.6    0.0   0.0   0.0   0.0   10000 
Fri 23:30   SW  7/  9  15.4 -0.8  1014.6    0.0   0.0   0.0   0.0   10000 
Sat 00:00    C  0/  4  13.6  0.6  1014.6    0.0   0.0   0.0   0.0   10000 
Sat 00:30    C  0/  0  13.5  1.8  1014.4    0.0   0.0   0.0   0.0   10000 
Sat 01:00    C  0/  0  13.9  1.5  1014.0    0.0   0.0   0.0   0.0   10000 
Sat 01:30    C  0/  0  13.1  2.6  1014.2    0.0   0.0   0.0   0.0   10000 
Sat 02:00  NNE  7/ 11  12.6  1.0  1014.4    0.0   0.0   0.0   0.0   10000 
Sat 02:30  NNE  6/  9  14.9 -1.2  1014.9    0.0   0.0   0.0   0.0   10000 
Sat 03:00  NNW  4/  7  14.6 -1.1  1014.9    0.0   0.0   0.0   0.0   10000 
Sat 03:30  NNW  7/  9  15.2 -1.4  1014.9    0.0   0.0   0.0   0.0   10000 
Sat 04:00    C  0/  6  12.4  0.2  1015.1    0.0   0.0   0.0   0.0   10000 
Sat 04:30    C  0/  0  12.1  0.5  1015.5    0.0   0.0   0.0   0.0   10000 

EMERALD AIRPORT

Site: 035264
Alt: 189.4m
7km SSE of EMERALD


  Time     Wind        Temp  DP   Baro     Rain since   Rain past  Vis(m), Cloud(base in m), Weather
  local        km/h                         9am  last   hr   10m    
Fri 23:00  WSW  6/  7  19.4 -3.5  1013.8    0.0   0.0   0.0   0.0   10000 
Fri 23:30  WSW  6/  7  18.7 -2.3  1014.0    0.0   0.0   0.0   0.0   10000 
Sat 00:00    W  2/  7  16.9 -1.7  1013.9    0.0   0.0   0.0   0.0   10000 
Sat 00:30    C  0/  0  17.4 -1.8  1013.9    0.0   0.0   0.0   0.0   10000 
Sat 01:00    C  0/  0  14.2 -0.3  1013.9    0.0   0.0   0.0   0.0   10000 
Sat 01:30   SW  2/  7  16.8 -0.9  1013.7    0.0   0.0   0.0   0.0   10000 
Sat 02:00    C  0/  0  15.6  2.1  1013.7    0.0   0.0   0.0   0.0   10000 
Sat 02:30    C  0/  0  13.7  0.0  1013.5    0.0   0.0   0.0   0.0   10000 
Sat 03:00  SSW  7/  9  13.4  0.4  1013.4    0.0   0.0   0.0   0.0   10000 
Sat 03:30   SW 13/ 13  14.7 -0.2  1013.6    0.0   0.0   0.0   0.0   10000 
Sat 04:00    W  2/  6  14.4 -0.1  1014.0    0.0   0.0   0.0   0.0   10000 
Sat 04:30  WNW  7/  9  15.4 -0.4  1014.7    0.0   0.0   0.0   0.0   10000 

LOCHINGTON

Site: 035139
Alt: 267.2m
80km SW of EMERALD


  Time     Wind        Temp  DP   Baro     Rain since   Rain past  Vis(m), Cloud(base in m), Weather
  local        km/h                         9am  last   hr   10m    
Fri 23:00  WNW  9/ 11  19.0 -3.2  1014.6    0.0   0.0   0.0   0.0   ----- 
Fri 23:30    W  4/  6  18.2 -3.2  1014.6    0.0   0.0   0.0   0.0   ----- 
Sat 00:00   SW  7/ 11  18.5 -3.0  1014.4    0.0   0.0   0.0   0.0   ----- 
Sat 00:30  WSW  6/ 11  18.1 -3.3  1014.4    0.0   0.0   0.0   0.0   ----- 
Sat 01:00  SSW  6/  9  17.4 -2.3  1014.1    0.0   0.0   0.0   0.0   ----- 
Sat 01:30    W  2/  4  16.3 -2.2  1014.2    0.0   0.0   0.0   0.0   ----- 
Sat 02:00  WNW  2/  4  15.9 -1.6  1014.2    0.0   0.0   0.0   0.0   ----- 
Sat 02:30  WSW  6/  7  14.1  1.7  1014.2    0.0   0.0   0.0   0.0   ----- 
Sat 03:00    W  2/  4  14.3 -0.9  1014.4    0.0   0.0   0.0   0.0   ----- 
Sat 03:30  WSW  6/  7  14.1  0.4  1014.5    0.0   0.0   0.0   0.0   ----- 
Sat 04:00    W  6/  7  14.0  1.0  1014.9    0.0   0.0   0.0   0.0   ----- 
Sat 04:30    W  6/  9  14.8  1.3  1015.2    0.0   0.0   0.0   0.0   ----- 

ROLLESTON AIRPORT

Site: 035129
Alt: 219.5m
101km SSW of BLACKWATER


  Time     Wind        Temp  DP   Baro     Rain since   Rain past  Vis(m), Cloud(base in m), Weather
  local        km/h                         9am  last   hr   10m    
Fri 23:00    C  0/  6  19.9 -5.8  1013.7    0.0   0.0   0.0   0.0   ----- 
Fri 23:30   NW  7/  9  17.6 -5.6  1013.8    0.0   0.0   0.0   0.0   ----- 
Sat 00:00  WNW  6/  7  17.9 -5.3  1013.7    0.0   0.0   0.0   0.0   ----- 
Sat 00:30    W  6/  7  17.3 -5.8  1013.9    0.0   0.0   0.0   0.0   ----- 
Sat 01:00    C  0/  2  17.0 -5.5  1013.8    0.0   0.0   0.0   0.0   ----- 
Sat 01:30    C  0/  0  15.4 -3.5  1013.6    0.0   0.0   0.0   0.0   ----- 
Sat 02:00    N  7/  9  14.6 -4.2  1013.8    0.0   0.0   0.0   0.0   ----- 
Sat 02:30  NNE  6/  7  14.7 -4.1  1013.8    0.0   0.0   0.0   0.0   ----- 
Sat 03:00    C  0/  0  11.7 -3.6  1014.1    0.0   0.0   0.0   0.0   ----- 
Sat 03:30    C  0/  0  11.9 -3.4  1014.5    0.0   0.0   0.0   0.0   ----- 
Sat 04:00   SE  7/ 11  12.5 -2.5  1014.8    0.0   0.0   0.0   0.0   ----- 
Sat 04:30    S  7/  9  13.6 -2.8  1015.1    0.0   0.0   0.0   0.0   -----